DTA weather

Delta Municipal Airport
Delta, Utah, United States

Public forecast

Using degrees Fahrenheit for public forecast. Weather courtesy of forecast.io.

Current aviation weather report (METAR) for Delta Municipal Airport

Retrieved 2020/04/09 12:35 UTC (19 minutes ago):

KDTA 091235Z AUTO 00000KT 10SM SCT075 BKN085 BKN120 06/03 A3001 RMK AO1

Closest aviation forecast (TAF) to Delta Municipal Airport

Closest forecast is Provo Municipal Airport, 62.0 nm (114.9 km) NE. Retrieved 2020/04/09 12:22 UTC (32 minutes ago):

TAF KPVU 091120Z 0912/1012 VRB05KT P6SM SCT060 SCT120 FM091900 22010KT P6SM VCSH SCT030 BKN060 FM100300 VRB04KT P6SM SCT060 SCT120